Junction, Illinois
Current Conditions -  °F | °C
As of 9:15 PM on Friday 21 Nov 2014 (Local Time) from KHSB Reporting Station
Overcast Overcast  
Wind Chill: 38°   Ceiling: 5000
Heat Index: 42°   Visibility: 10mi
Dew Point: 27°   Wind: 6mph
Humidity: 55%   Direction: 100°E
Pressure: 30.32"   Gusts: NA
Location:  37.72°N, 88.24°W
Report Text: KHSB 220315Z AUTO 10005KT 10SM SCT043 OVC050 06/M03 A3032 RMK AO2 T00551029
Loading
Personal Weather Stations






























Interactive Weather Map New forecast layout! Learn more

10-Day Weather Forecast

Advertisements
Track Severe Weather on mobile